sensor_id;sensor_type;location;lat;lon;timestamp;temperature;humidity
36652;DHT22;53334;51.976;20.144;2023-02-26T00:00:46;26.00;45.70
36652;DHT22;53334;51.976;20.144;2023-02-26T00:03:19;26.00;45.70
36652;DHT22;53334;51.976;20.144;2023-02-26T00:05:57;25.90;45.60
36652;DHT22;53334;51.976;20.144;2023-02-26T00:08:30;26.00;45.80
36652;DHT22;53334;51.976;20.144;2023-02-26T00:11:05;25.90;45.70
36652;DHT22;53334;51.976;20.144;2023-02-26T00:13:39;25.90;45.80
36652;DHT22;53334;51.976;20.144;2023-02-26T00:16:15;25.90;45.50
36652;DHT22;53334;51.976;20.144;2023-02-26T00:18:53;25.90;45.80
36652;DHT22;53334;51.976;20.144;2023-02-26T00:21:28;25.90;45.80
36652;DHT22;53334;51.976;20.144;2023-02-26T00:24:02;25.90;45.90
36652;DHT22;53334;51.976;20.144;2023-02-26T00:26:37;25.90;45.90
36652;DHT22;53334;51.976;20.144;2023-02-26T00:29:10;25.90;45.90
36652;DHT22;53334;51.976;20.144;2023-02-26T00:31:44;25.90;45.90
36652;DHT22;53334;51.976;20.144;2023-02-26T00:34:17;25.90;46.00
36652;DHT22;53334;51.976;20.144;2023-02-26T00:36:58;25.90;45.90
36652;DHT22;53334;51.976;20.144;2023-02-26T00:39:36;25.90;45.90
36652;DHT22;53334;51.976;20.144;2023-02-26T00:42:12;25.90;45.90
36652;DHT22;53334;51.976;20.144;2023-02-26T00:44:46;25.80;45.80
36652;DHT22;53334;51.976;20.144;2023-02-26T00:47:21;25.80;45.70
36652;DHT22;53334;51.976;20.144;2023-02-26T00:50:01;25.80;45.80
36652;DHT22;53334;51.976;20.144;2023-02-26T00:52:40;25.80;45.60
36652;DHT22;53334;51.976;20.144;2023-02-26T00:55:15;25.80;45.90
36652;DHT22;53334;51.976;20.144;2023-02-26T00:57:48;25.80;46.00
36652;DHT22;53334;51.976;20.144;2023-02-26T01:00:21;25.80;46.10
36652;DHT22;53334;51.976;20.144;2023-02-26T01:02:55;25.80;46.10
36652;DHT22;53334;51.976;20.144;2023-02-26T01:05:28;25.80;46.10
36652;DHT22;53334;51.976;20.144;2023-02-26T01:08:04;25.80;46.10
36652;DHT22;53334;51.976;20.144;2023-02-26T01:10:39;25.80;46.10
36652;DHT22;53334;51.976;20.144;2023-02-26T01:13:13;25.80;46.20
36652;DHT22;53334;51.976;20.144;2023-02-26T01:15:47;25.80;46.20
36652;DHT22;53334;51.976;20.144;2023-02-26T01:18:21;25.80;46.20
36652;DHT22;53334;51.976;20.144;2023-02-26T01:20:56;25.80;46.20
36652;DHT22;53334;51.976;20.144;2023-02-26T01:23:32;25.80;46.20
36652;DHT22;53334;51.976;20.144;2023-02-26T01:26:09;25.80;46.20
36652;DHT22;53334;51.976;20.144;2023-02-26T01:28:44;25.80;46.30
36652;DHT22;53334;51.976;20.144;2023-02-26T01:31:22;25.80;46.30
36652;DHT22;53334;51.976;20.144;2023-02-26T01:33:58;25.80;46.30
36652;DHT22;53334;51.976;20.144;2023-02-26T01:36:35;25.80;46.40
36652;DHT22;53334;51.976;20.144;2023-02-26T01:39:15;25.80;46.40
36652;DHT22;53334;51.976;20.144;2023-02-26T01:41:51;25.80;46.40
36652;DHT22;53334;51.976;20.144;2023-02-26T01:44:28;25.80;46.50
36652;DHT22;53334;51.976;20.144;2023-02-26T01:47:14;25.80;46.50
36652;DHT22;53334;51.976;20.144;2023-02-26T01:49:48;25.80;46.50
36652;DHT22;53334;51.976;20.144;2023-02-26T01:55:29;25.80;46.40
36652;DHT22;53334;51.976;20.144;2023-02-26T01:58:02;25.80;46.40
36652;DHT22;53334;51.976;20.144;2023-02-26T02:00:36;25.80;46.50
36652;DHT22;53334;51.976;20.144;2023-02-26T02:03:10;25.80;46.40
36652;DHT22;53334;51.976;20.144;2023-02-26T02:05:44;25.80;46.40
36652;DHT22;53334;51.976;20.144;2023-02-26T02:08:19;25.80;46.30
36652;DHT22;53334;51.976;20.144;2023-02-26T02:10:54;25.80;46.40
36652;DHT22;53334;51.976;20.144;2023-02-26T02:13:30;25.80;46.50
36652;DHT22;53334;51.976;20.144;2023-02-26T02:16:11;25.80;46.50
36652;DHT22;53334;51.976;20.144;2023-02-26T02:18:51;25.80;46.50
36652;DHT22;53334;51.976;20.144;2023-02-26T02:21:33;25.80;46.50
36652;DHT22;53334;51.976;20.144;2023-02-26T02:24:13;25.80;46.50
36652;DHT22;53334;51.976;20.144;2023-02-26T02:27:00;25.80;46.50
36652;DHT22;53334;51.976;20.144;2023-02-26T02:29:58;25.80;46.40
36652;DHT22;53334;51.976;20.144;2023-02-26T02:32:35;25.80;46.40
36652;DHT22;53334;51.976;20.144;2023-02-26T02:35:13;25.80;46.40
36652;DHT22;53334;51.976;20.144;2023-02-26T02:37:50;25.80;46.40
36652;DHT22;53334;51.976;20.144;2023-02-26T02:40:27;25.80;46.30
36652;DHT22;53334;51.976;20.144;2023-02-26T02:43:02;25.80;46.30
36652;DHT22;53334;51.976;20.144;2023-02-26T02:45:37;25.80;46.30
36652;DHT22;53334;51.976;20.144;2023-02-26T02:48:15;25.80;46.30
36652;DHT22;53334;51.976;20.144;2023-02-26T02:50:52;25.80;46.40
36652;DHT22;53334;51.976;20.144;2023-02-26T02:53:28;25.80;46.40
36652;DHT22;53334;51.976;20.144;2023-02-26T02:56:03;25.80;46.40
36652;DHT22;53334;51.976;20.144;2023-02-26T02:58:39;25.80;46.50
36652;DHT22;53334;51.976;20.144;2023-02-26T03:01:14;25.70;46.40
36652;DHT22;53334;51.976;20.144;2023-02-26T03:03:50;25.70;46.40
36652;DHT22;53334;51.976;20.144;2023-02-26T03:06:26;25.80;46.50
36652;DHT22;53334;51.976;20.144;2023-02-26T03:09:00;25.70;46.50
36652;DHT22;53334;51.976;20.144;2023-02-26T03:11:35;25.70;46.50
36652;DHT22;53334;51.976;20.144;2023-02-26T03:14:09;25.70;46.50
36652;DHT22;53334;51.976;20.144;2023-02-26T03:16:48;25.70;46.40
36652;DHT22;53334;51.976;20.144;2023-02-26T03:19:29;25.70;46.40
36652;DHT22;53334;51.976;20.144;2023-02-26T03:22:06;25.70;46.40
36652;DHT22;53334;51.976;20.144;2023-02-26T03:24:58;25.70;46.40
36652;DHT22;53334;51.976;20.144;2023-02-26T03:27:34;25.70;46.40
36652;DHT22;53334;51.976;20.144;2023-02-26T03:30:09;25.70;46.40
36652;DHT22;53334;51.976;20.144;2023-02-26T03:32:52;25.70;46.30
36652;DHT22;53334;51.976;20.144;2023-02-26T03:35:32;25.70;46.30
36652;DHT22;53334;51.976;20.144;2023-02-26T03:38:08;25.70;46.30
36652;DHT22;53334;51.976;20.144;2023-02-26T03:40:45;25.70;46.30
36652;DHT22;53334;51.976;20.144;2023-02-26T03:43:21;25.70;46.40
36652;DHT22;53334;51.976;20.144;2023-02-26T03:45:56;25.70;46.40
36652;DHT22;53334;51.976;20.144;2023-02-26T03:48:30;25.70;46.40
36652;DHT22;53334;51.976;20.144;2023-02-26T03:51:06;25.70;46.40
36652;DHT22;53334;51.976;20.144;2023-02-26T03:53:43;25.70;46.40
36652;DHT22;53334;51.976;20.144;2023-02-26T03:56:23;25.70;46.40
36652;DHT22;53334;51.976;20.144;2023-02-26T03:59:10;25.70;46.40
36652;DHT22;53334;51.976;20.144;2023-02-26T04:01:51;25.70;46.50
36652;DHT22;53334;51.976;20.144;2023-02-26T04:04:26;25.70;46.40
36652;DHT22;53334;51.976;20.144;2023-02-26T04:07:03;25.70;46.40
36652;DHT22;53334;51.976;20.144;2023-02-26T04:09:37;25.70;46.40
36652;DHT22;53334;51.976;20.144;2023-02-26T04:12:12;25.70;46.30
36652;DHT22;53334;51.976;20.144;2023-02-26T04:14:50;25.70;46.30
36652;DHT22;53334;51.976;20.144;2023-02-26T04:17:23;25.70;46.30
36652;DHT22;53334;51.976;20.144;2023-02-26T04:19:57;25.70;46.30
36652;DHT22;53334;51.976;20.144;2023-02-26T04:22:31;25.70;46.30
36652;DHT22;53334;51.976;20.144;2023-02-26T04:25:05;25.70;46.40
36652;DHT22;53334;51.976;20.144;2023-02-26T04:27:40;25.70;46.40
36652;DHT22;53334;51.976;20.144;2023-02-26T04:30:13;25.70;46.40
36652;DHT22;53334;51.976;20.144;2023-02-26T04:32:46;25.70;46.40
36652;DHT22;53334;51.976;20.144;2023-02-26T04:35:19;25.70;46.40
36652;DHT22;53334;51.976;20.144;2023-02-26T04:37:54;25.70;46.50
36652;DHT22;53334;51.976;20.144;2023-02-26T04:40:27;25.70;46.40
36652;DHT22;53334;51.976;20.144;2023-02-26T04:43:00;25.70;46.40
36652;DHT22;53334;51.976;20.144;2023-02-26T04:45:38;25.70;46.50
36652;DHT22;53334;51.976;20.144;2023-02-26T04:48:12;25.70;46.50
36652;DHT22;53334;51.976;20.144;2023-02-26T04:50:46;25.70;46.50
36652;DHT22;53334;51.976;20.144;2023-02-26T04:53:20;25.70;46.40
36652;DHT22;53334;51.976;20.144;2023-02-26T04:55:53;25.70;46.40
36652;DHT22;53334;51.976;20.144;2023-02-26T04:58:26;25.70;46.30
36652;DHT22;53334;51.976;20.144;2023-02-26T05:01:04;25.70;46.30
36652;DHT22;53334;51.976;20.144;2023-02-26T05:03:37;25.70;46.30
36652;DHT22;53334;51.976;20.144;2023-02-26T05:06:10;25.70;46.30
36652;DHT22;53334;51.976;20.144;2023-02-26T05:08:45;25.70;46.30
36652;DHT22;53334;51.976;20.144;2023-02-26T05:11:18;25.70;46.30
36652;DHT22;53334;51.976;20.144;2023-02-26T05:13:51;25.70;46.30
36652;DHT22;53334;51.976;20.144;2023-02-26T05:16:24;25.70;46.30
36652;DHT22;53334;51.976;20.144;2023-02-26T05:18:58;25.70;46.40
36652;DHT22;53334;51.976;20.144;2023-02-26T05:21:32;25.70;46.30
36652;DHT22;53334;51.976;20.144;2023-02-26T05:24:06;25.70;46.40
36652;DHT22;53334;51.976;20.144;2023-02-26T05:26:40;25.60;46.30
36652;DHT22;53334;51.976;20.144;2023-02-26T05:29:13;25.70;46.40
36652;DHT22;53334;51.976;20.144;2023-02-26T05:31:48;25.70;46.40
36652;DHT22;53334;51.976;20.144;2023-02-26T05:34:21;25.70;46.40
36652;DHT22;53334;51.976;20.144;2023-02-26T05:36:54;25.60;46.40
36652;DHT22;53334;51.976;20.144;2023-02-26T05:39:28;25.70;46.50
36652;DHT22;53334;51.976;20.144;2023-02-26T05:42:02;25.70;46.40
36652;DHT22;53334;51.976;20.144;2023-02-26T05:44:35;25.60;46.30
36652;DHT22;53334;51.976;20.144;2023-02-26T05:47:08;25.60;46.30
36652;DHT22;53334;51.976;20.144;2023-02-26T05:49:41;25.60;46.30
36652;DHT22;53334;51.976;20.144;2023-02-26T05:52:14;25.60;46.20
36652;DHT22;53334;51.976;20.144;2023-02-26T05:54:49;25.60;46.20
36652;DHT22;53334;51.976;20.144;2023-02-26T05:57:22;25.70;46.30
36652;DHT22;53334;51.976;20.144;2023-02-26T05:59:55;25.70;46.20
36652;DHT22;53334;51.976;20.144;2023-02-26T06:02:28;25.60;46.20
36652;DHT22;53334;51.976;20.144;2023-02-26T06:05:01;25.60;46.20
36652;DHT22;53334;51.976;20.144;2023-02-26T06:07:35;25.60;46.30
36652;DHT22;53334;51.976;20.144;2023-02-26T06:10:10;25.70;46.30
36652;DHT22;53334;51.976;20.144;2023-02-26T06:12:44;25.60;46.30
36652;DHT22;53334;51.976;20.144;2023-02-26T06:15:17;25.60;46.30
36652;DHT22;53334;51.976;20.144;2023-02-26T06:17:50;25.70;46.40
36652;DHT22;53334;51.976;20.144;2023-02-26T06:20:23;25.60;46.30
36652;DHT22;53334;51.976;20.144;2023-02-26T06:22:56;25.60;46.30
36652;DHT22;53334;51.976;20.144;2023-02-26T06:25:31;25.60;46.30
36652;DHT22;53334;51.976;20.144;2023-02-26T06:28:04;25.70;46.40
36652;DHT22;53334;51.976;20.144;2023-02-26T06:30:37;25.70;46.40
36652;DHT22;53334;51.976;20.144;2023-02-26T06:33:10;25.60;46.30
36652;DHT22;53334;51.976;20.144;2023-02-26T06:35:43;25.60;46.20
36652;DHT22;53334;51.976;20.144;2023-02-26T06:38:17;25.60;46.20
36652;DHT22;53334;51.976;20.144;2023-02-26T06:40:51;25.60;46.20
36652;DHT22;53334;51.976;20.144;2023-02-26T06:43:24;25.60;46.10
36652;DHT22;53334;51.976;20.144;2023-02-26T06:45:58;25.60;46.10
36652;DHT22;53334;51.976;20.144;2023-02-26T06:48:31;25.70;46.20
36652;DHT22;53334;51.976;20.144;2023-02-26T06:51:04;25.60;46.20
36652;DHT22;53334;51.976;20.144;2023-02-26T06:53:38;25.60;46.20
36652;DHT22;53334;51.976;20.144;2023-02-26T06:56:12;25.60;46.30
36652;DHT22;53334;51.976;20.144;2023-02-26T06:58:45;25.60;46.30
36652;DHT22;53334;51.976;20.144;2023-02-26T07:01:19;25.70;46.40
36652;DHT22;53334;51.976;20.144;2023-02-26T07:03:52;25.60;46.30
36652;DHT22;53334;51.976;20.144;2023-02-26T07:06:25;25.60;46.30
36652;DHT22;53334;51.976;20.144;2023-02-26T07:08:59;25.60;46.30
36652;DHT22;53334;51.976;20.144;2023-02-26T07:11:33;25.60;46.40
36652;DHT22;53334;51.976;20.144;2023-02-26T07:14:07;25.60;46.40
36652;DHT22;53334;51.976;20.144;2023-02-26T07:16:40;25.60;46.40
36652;DHT22;53334;51.976;20.144;2023-02-26T07:19:13;25.60;46.30
36652;DHT22;53334;51.976;20.144;2023-02-26T07:21:46;25.60;46.30
36652;DHT22;53334;51.976;20.144;2023-02-26T07:24:19;25.60;46.30
36652;DHT22;53334;51.976;20.144;2023-02-26T07:26:54;25.60;46.20
36652;DHT22;53334;51.976;20.144;2023-02-26T07:29:27;25.60;46.20
36652;DHT22;53334;51.976;20.144;2023-02-26T07:32:00;25.60;46.20
36652;DHT22;53334;51.976;20.144;2023-02-26T07:34:33;25.60;46.20
36652;DHT22;53334;51.976;20.144;2023-02-26T07:37:06;25.60;46.30
36652;DHT22;53334;51.976;20.144;2023-02-26T07:39:40;25.60;46.30
36652;DHT22;53334;51.976;20.144;2023-02-26T07:42:14;25.60;46.40
36652;DHT22;53334;51.976;20.144;2023-02-26T07:44:47;25.60;46.40
36652;DHT22;53334;51.976;20.144;2023-02-26T07:47:21;25.60;46.40
36652;DHT22;53334;51.976;20.144;2023-02-26T07:49:54;25.60;46.40
36652;DHT22;53334;51.976;20.144;2023-02-26T07:52:27;25.60;46.40
36652;DHT22;53334;51.976;20.144;2023-02-26T07:55:00;25.60;46.40
36652;DHT22;53334;51.976;20.144;2023-02-26T07:57:35;25.60;46.40
36652;DHT22;53334;51.976;20.144;2023-02-26T08:00:08;25.60;46.40
36652;DHT22;53334;51.976;20.144;2023-02-26T08:02:45;25.60;46.50
36652;DHT22;53334;51.976;20.144;2023-02-26T08:05:18;25.60;46.40
36652;DHT22;53334;51.976;20.144;2023-02-26T08:07:51;25.60;46.30
36652;DHT22;53334;51.976;20.144;2023-02-26T08:10:24;25.60;46.30
36652;DHT22;53334;51.976;20.144;2023-02-26T08:12:59;25.60;46.30
36652;DHT22;53334;51.976;20.144;2023-02-26T08:15:32;25.60;46.30
36652;DHT22;53334;51.976;20.144;2023-02-26T08:18:05;25.60;46.30
36652;DHT22;53334;51.976;20.144;2023-02-26T08:20:38;25.60;46.30
36652;DHT22;53334;51.976;20.144;2023-02-26T08:23:11;25.60;46.50
36652;DHT22;53334;51.976;20.144;2023-02-26T08:25:45;25.60;46.60
36652;DHT22;53334;51.976;20.144;2023-02-26T08:28:19;25.60;46.60
36652;DHT22;53334;51.976;20.144;2023-02-26T08:30:52;25.60;46.70
36652;DHT22;53334;51.976;20.144;2023-02-26T08:33:26;25.60;46.40
36652;DHT22;53334;51.976;20.144;2023-02-26T08:35:59;25.60;46.40
36652;DHT22;53334;51.976;20.144;2023-02-26T08:38:33;25.60;46.40
36652;DHT22;53334;51.976;20.144;2023-02-26T08:41:06;25.60;46.50
36652;DHT22;53334;51.976;20.144;2023-02-26T08:43:40;25.60;46.60
36652;DHT22;53334;51.976;20.144;2023-02-26T08:46:13;25.60;47.00
36652;DHT22;53334;51.976;20.144;2023-02-26T08:48:46;25.60;47.00
36652;DHT22;53334;51.976;20.144;2023-02-26T08:51:20;25.70;47.10
36652;DHT22;53334;51.976;20.144;2023-02-26T08:53:53;25.60;47.10
36652;DHT22;53334;51.976;20.144;2023-02-26T08:56:27;25.60;47.60
36652;DHT22;53334;51.976;20.144;2023-02-26T08:59:02;25.60;48.00
36652;DHT22;53334;51.976;20.144;2023-02-26T09:01:35;25.70;48.80
36652;DHT22;53334;51.976;20.144;2023-02-26T09:04:08;25.70;49.20
36652;DHT22;53334;51.976;20.144;2023-02-26T09:06:41;25.70;48.90
36652;DHT22;53334;51.976;20.144;2023-02-26T09:09:14;25.70;48.80
36652;DHT22;53334;51.976;20.144;2023-02-26T09:11:47;25.70;49.50
36652;DHT22;53334;51.976;20.144;2023-02-26T09:14:22;25.70;49.00
36652;DHT22;53334;51.976;20.144;2023-02-26T09:16:55;25.70;49.30
36652;DHT22;53334;51.976;20.144;2023-02-26T09:19:28;25.80;49.90
36652;DHT22;53334;51.976;20.144;2023-02-26T09:22:01;25.80;49.50
36652;DHT22;53334;51.976;20.144;2023-02-26T09:24:37;25.80;49.10
36652;DHT22;53334;51.976;20.144;2023-02-26T09:27:10;25.80;48.70
36652;DHT22;53334;51.976;20.144;2023-02-26T09:29:44;25.80;48.30
36652;DHT22;53334;51.976;20.144;2023-02-26T09:32:17;25.80;48.20
36652;DHT22;53334;51.976;20.144;2023-02-26T09:34:51;25.80;48.00
36652;DHT22;53334;51.976;20.144;2023-02-26T09:37:24;25.80;47.70
36652;DHT22;53334;51.976;20.144;2023-02-26T09:39:57;25.80;47.30
36652;DHT22;53334;51.976;20.144;2023-02-26T09:42:34;25.80;47.20
36652;DHT22;53334;51.976;20.144;2023-02-26T09:45:16;25.80;46.90
36652;DHT22;53334;51.976;20.144;2023-02-26T09:47:53;25.80;46.60
36652;DHT22;53334;51.976;20.144;2023-02-26T09:50:31;25.80;46.80
36652;DHT22;53334;51.976;20.144;2023-02-26T09:53:09;25.80;42.60
36652;DHT22;53334;51.976;20.144;2023-02-26T09:55:44;25.70;36.20
36652;DHT22;53334;51.976;20.144;2023-02-26T09:58:20;25.50;32.30
36652;DHT22;53334;51.976;20.144;2023-02-26T10:00:57;25.40;33.00
36652;DHT22;53334;51.976;20.144;2023-02-26T10:03:35;25.30;36.00
36652;DHT22;53334;51.976;20.144;2023-02-26T10:06:20;25.20;36.40
36652;DHT22;53334;51.976;20.144;2023-02-26T10:08:59;25.20;38.30
36652;DHT22;53334;51.976;20.144;2023-02-26T10:11:34;25.20;38.20
36652;DHT22;53334;51.976;20.144;2023-02-26T10:14:11;25.20;37.80
36652;DHT22;53334;51.976;20.144;2023-02-26T10:16:48;25.20;38.70
36652;DHT22;53334;51.976;20.144;2023-02-26T10:19:24;25.20;38.90
36652;DHT22;53334;51.976;20.144;2023-02-26T10:22:00;25.20;38.80
36652;DHT22;53334;51.976;20.144;2023-02-26T10:24:36;25.20;38.30
36652;DHT22;53334;51.976;20.144;2023-02-26T10:27:11;25.30;38.60
36652;DHT22;53334;51.976;20.144;2023-02-26T10:29:48;25.30;38.70
36652;DHT22;53334;51.976;20.144;2023-02-26T10:32:24;25.30;38.80
36652;DHT22;53334;51.976;20.144;2023-02-26T10:34:59;25.30;39.20
36652;DHT22;53334;51.976;20.144;2023-02-26T10:37:36;25.40;40.60
36652;DHT22;53334;51.976;20.144;2023-02-26T10:40:12;25.40;40.70
36652;DHT22;53334;51.976;20.144;2023-02-26T10:42:47;25.40;40.70
36652;DHT22;53334;51.976;20.144;2023-02-26T10:45:25;25.40;40.50
36652;DHT22;53334;51.976;20.144;2023-02-26T10:48:07;25.40;40.80
36652;DHT22;53334;51.976;20.144;2023-02-26T10:50:45;25.40;40.50
36652;DHT22;53334;51.976;20.144;2023-02-26T10:53:20;25.40;39.40
36652;DHT22;53334;51.976;20.144;2023-02-26T10:55:55;25.40;39.30
36652;DHT22;53334;51.976;20.144;2023-02-26T10:58:28;25.40;40.20
36652;DHT22;53334;51.976;20.144;2023-02-26T11:01:02;25.50;40.50
36652;DHT22;53334;51.976;20.144;2023-02-26T11:03:41;25.50;41.50
36652;DHT22;53334;51.976;20.144;2023-02-26T11:06:17;25.50;41.40
36652;DHT22;53334;51.976;20.144;2023-02-26T11:08:51;25.60;41.60
36652;DHT22;53334;51.976;20.144;2023-02-26T11:11:35;25.50;40.80
36652;DHT22;53334;51.976;20.144;2023-02-26T11:14:08;25.60;41.50
36652;DHT22;53334;51.976;20.144;2023-02-26T11:16:44;25.60;41.20
36652;DHT22;53334;51.976;20.144;2023-02-26T11:19:27;25.60;41.50
36652;DHT22;53334;51.976;20.144;2023-02-26T11:22:01;25.60;41.60
36652;DHT22;53334;51.976;20.144;2023-02-26T11:24:35;25.60;41.90
36652;DHT22;53334;51.976;20.144;2023-02-26T11:27:11;25.60;41.90
36652;DHT22;53334;51.976;20.144;2023-02-26T11:29:46;25.60;41.90
36652;DHT22;53334;51.976;20.144;2023-02-26T11:32:20;25.60;42.00
36652;DHT22;53334;51.976;20.144;2023-02-26T11:34:56;25.60;42.10
36652;DHT22;53334;51.976;20.144;2023-02-26T11:37:29;25.60;42.10
36652;DHT22;53334;51.976;20.144;2023-02-26T11:40:04;25.60;42.10
36652;DHT22;53334;51.976;20.144;2023-02-26T11:42:43;25.60;41.90
36652;DHT22;53334;51.976;20.144;2023-02-26T11:45:17;25.60;41.90
36652;DHT22;53334;51.976;20.144;2023-02-26T11:47:57;25.60;41.90
36652;DHT22;53334;51.976;20.144;2023-02-26T11:50:37;25.60;41.70
36652;DHT22;53334;51.976;20.144;2023-02-26T11:53:15;25.60;41.50
36652;DHT22;53334;51.976;20.144;2023-02-26T11:55:50;25.60;41.60
36652;DHT22;53334;51.976;20.144;2023-02-26T11:58:24;25.60;41.50
36652;DHT22;53334;51.976;20.144;2023-02-26T12:00:57;25.70;41.60
36652;DHT22;53334;51.976;20.144;2023-02-26T12:03:31;25.70;41.90
36652;DHT22;53334;51.976;20.144;2023-02-26T12:06:06;25.60;42.10
36652;DHT22;53334;51.976;20.144;2023-02-26T12:08:47;25.70;42.20
36652;DHT22;53334;51.976;20.144;2023-02-26T12:11:28;25.70;41.90
36652;DHT22;53334;51.976;20.144;2023-02-26T12:14:18;25.60;41.60
36652;DHT22;53334;51.976;20.144;2023-02-26T12:16:58;25.70;41.40
36652;DHT22;53334;51.976;20.144;2023-02-26T12:19:36;25.60;41.40
36652;DHT22;53334;51.976;20.144;2023-02-26T12:22:18;25.60;41.30
36652;DHT22;53334;51.976;20.144;2023-02-26T12:27:51;25.70;41.60
36652;DHT22;53334;51.976;20.144;2023-02-26T12:30:33;25.70;41.70
36652;DHT22;53334;51.976;20.144;2023-02-26T12:33:13;25.70;42.00
36652;DHT22;53334;51.976;20.144;2023-02-26T12:35:53;25.70;42.70
36652;DHT22;53334;51.976;20.144;2023-02-26T12:38:32;25.70;43.50
36652;DHT22;53334;51.976;20.144;2023-02-26T12:43:59;25.80;43.20
36652;DHT22;53334;51.976;20.144;2023-02-26T12:46:37;25.80;43.40
36652;DHT22;53334;51.976;20.144;2023-02-26T12:49:17;25.80;43.50
36652;DHT22;53334;51.976;20.144;2023-02-26T12:52:12;25.80;43.90
36652;DHT22;53334;51.976;20.144;2023-02-26T12:54:56;25.80;44.10
36652;DHT22;53334;51.976;20.144;2023-02-26T13:00:38;25.80;44.00
36652;DHT22;53334;51.976;20.144;2023-02-26T13:06:24;25.80;44.10
36652;DHT22;53334;51.976;20.144;2023-02-26T13:09:03;25.90;44.50
36652;DHT22;53334;51.976;20.144;2023-02-26T13:11:44;25.90;44.50
36652;DHT22;53334;51.976;20.144;2023-02-26T13:14:26;25.90;44.60
36652;DHT22;53334;51.976;20.144;2023-02-26T13:17:04;25.90;44.60
36652;DHT22;53334;51.976;20.144;2023-02-26T13:19:41;25.90;44.70
36652;DHT22;53334;51.976;20.144;2023-02-26T13:22:17;26.00;44.80
36652;DHT22;53334;51.976;20.144;2023-02-26T13:24:53;26.00;44.80
36652;DHT22;53334;51.976;20.144;2023-02-26T13:27:29;26.00;44.70
36652;DHT22;53334;51.976;20.144;2023-02-26T13:30:08;26.00;44.80
36652;DHT22;53334;51.976;20.144;2023-02-26T13:32:46;26.00;44.80
36652;DHT22;53334;51.976;20.144;2023-02-26T13:35:21;26.00;44.80
36652;DHT22;53334;51.976;20.144;2023-02-26T13:37:57;26.00;44.80
36652;DHT22;53334;51.976;20.144;2023-02-26T13:40:38;26.00;44.80
36652;DHT22;53334;51.976;20.144;2023-02-26T13:43:18;26.10;45.00
36652;DHT22;53334;51.976;20.144;2023-02-26T13:45:56;26.10;44.80
36652;DHT22;53334;51.976;20.144;2023-02-26T13:48:36;26.10;44.80
36652;DHT22;53334;51.976;20.144;2023-02-26T13:51:12;26.10;44.80
36652;DHT22;53334;51.976;20.144;2023-02-26T13:53:53;26.10;45.30
36652;DHT22;53334;51.976;20.144;2023-02-26T13:56:46;26.10;44.80
36652;DHT22;53334;51.976;20.144;2023-02-26T13:59:25;26.10;44.80
36652;DHT22;53334;51.976;20.144;2023-02-26T14:02:02;26.10;45.10
36652;DHT22;53334;51.976;20.144;2023-02-26T14:04:56;26.10;45.50
36652;DHT22;53334;51.976;20.144;2023-02-26T14:07:45;26.10;45.50
36652;DHT22;53334;51.976;20.144;2023-02-26T14:10:23;26.10;45.50
36652;DHT22;53334;51.976;20.144;2023-02-26T14:13:01;26.10;45.50
36652;DHT22;53334;51.976;20.144;2023-02-26T14:15:47;26.10;45.30
36652;DHT22;53334;51.976;20.144;2023-02-26T14:18:27;26.10;45.20
36652;DHT22;53334;51.976;20.144;2023-02-26T14:23:50;26.10;45.00
36652;DHT22;53334;51.976;20.144;2023-02-26T14:26:24;26.10;45.00
36652;DHT22;53334;51.976;20.144;2023-02-26T14:29:07;26.10;45.00
36652;DHT22;53334;51.976;20.144;2023-02-26T14:31:53;26.10;44.80
36652;DHT22;53334;51.976;20.144;2023-02-26T14:34:27;26.10;44.80
36652;DHT22;53334;51.976;20.144;2023-02-26T14:37:02;26.10;44.80
36652;DHT22;53334;51.976;20.144;2023-02-26T14:39:38;26.10;44.70
36652;DHT22;53334;51.976;20.144;2023-02-26T14:42:13;26.10;44.60
36652;DHT22;53334;51.976;20.144;2023-02-26T14:44:49;26.10;44.50
36652;DHT22;53334;51.976;20.144;2023-02-26T14:47:25;26.10;44.50
36652;DHT22;53334;51.976;20.144;2023-02-26T14:49:58;26.10;44.20
36652;DHT22;53334;51.976;20.144;2023-02-26T14:52:38;26.10;44.30
36652;DHT22;53334;51.976;20.144;2023-02-26T14:55:31;26.10;44.30
36652;DHT22;53334;51.976;20.144;2023-02-26T14:58:11;26.10;44.30
36652;DHT22;53334;51.976;20.144;2023-02-26T15:00:48;26.10;44.30
36652;DHT22;53334;51.976;20.144;2023-02-26T15:03:39;26.10;44.20
36652;DHT22;53334;51.976;20.144;2023-02-26T15:06:28;26.10;44.20
36652;DHT22;53334;51.976;20.144;2023-02-26T15:09:07;26.10;44.20
36652;DHT22;53334;51.976;20.144;2023-02-26T15:11:50;26.10;44.60
36652;DHT22;53334;51.976;20.144;2023-02-26T15:14:32;26.10;44.50
36652;DHT22;53334;51.976;20.144;2023-02-26T15:17:10;26.10;44.70
36652;DHT22;53334;51.976;20.144;2023-02-26T15:19:55;26.10;44.90
36652;DHT22;53334;51.976;20.144;2023-02-26T15:22:43;26.10;44.80
36652;DHT22;53334;51.976;20.144;2023-02-26T15:25:22;26.00;44.50
36652;DHT22;53334;51.976;20.144;2023-02-26T15:27:56;26.10;44.60
36652;DHT22;53334;51.976;20.144;2023-02-26T15:30:30;26.00;44.60
36652;DHT22;53334;51.976;20.144;2023-02-26T15:33:04;26.10;44.80
36652;DHT22;53334;51.976;20.144;2023-02-26T15:35:41;26.00;44.80
36652;DHT22;53334;51.976;20.144;2023-02-26T15:38:15;26.10;44.80
36652;DHT22;53334;51.976;20.144;2023-02-26T15:40:48;26.00;44.90
36652;DHT22;53334;51.976;20.144;2023-02-26T15:43:23;26.00;45.00
36652;DHT22;53334;51.976;20.144;2023-02-26T15:45:57;26.10;44.80
36652;DHT22;53334;51.976;20.144;2023-02-26T15:48:34;26.00;44.80
36652;DHT22;53334;51.976;20.144;2023-02-26T15:51:11;26.00;44.90
36652;DHT22;53334;51.976;20.144;2023-02-26T15:53:46;26.00;45.10
36652;DHT22;53334;51.976;20.144;2023-02-26T15:56:20;26.00;45.00
36652;DHT22;53334;51.976;20.144;2023-02-26T15:58:55;26.00;45.20
36652;DHT22;53334;51.976;20.144;2023-02-26T16:01:30;26.00;45.60
36652;DHT22;53334;51.976;20.144;2023-02-26T16:04:11;26.00;45.60
36652;DHT22;53334;51.976;20.144;2023-02-26T16:06:46;26.00;45.60
36652;DHT22;53334;51.976;20.144;2023-02-26T16:09:24;26.00;45.60
36652;DHT22;53334;51.976;20.144;2023-02-26T16:11:58;26.00;45.60
36652;DHT22;53334;51.976;20.144;2023-02-26T16:14:34;26.10;45.60
36652;DHT22;53334;51.976;20.144;2023-02-26T16:17:10;26.00;45.60
36652;DHT22;53334;51.976;20.144;2023-02-26T16:19:44;26.00;45.60
36652;DHT22;53334;51.976;20.144;2023-02-26T16:22:21;26.00;45.60
36652;DHT22;53334;51.976;20.144;2023-02-26T16:24:57;26.00;45.60
36652;DHT22;53334;51.976;20.144;2023-02-26T16:27:31;26.00;45.50